createdAt,value
2019-02-07T00:09:48.133Z,38
2019-02-07T00:19:55.016Z,41
2019-02-07T00:30:02.729Z,34
2019-02-07T00:40:09.483Z,39
2019-02-07T00:45:28.020Z,33
2019-02-07T00:55:32.377Z,36
2019-02-07T01:05:39.792Z,30
2019-02-07T01:15:47.392Z,32
2019-02-07T01:25:56.711Z,30
2019-02-07T01:36:03.975Z,26
2019-02-07T01:46:13.841Z,27
2019-02-07T01:56:20.089Z,37
2019-02-07T02:06:27.242Z,32
2019-02-07T02:16:35.528Z,39
2019-02-07T02:26:43.187Z,34
2019-02-07T02:36:54.939Z,24
2019-02-07T02:46:16.119Z,18
2019-02-07T02:56:27.534Z,14
2019-02-07T03:06:35.273Z,15
2019-02-07T03:16:44.378Z,14
2019-02-07T03:26:51.993Z,15
2019-02-07T03:36:58.762Z,11
2019-02-07T03:47:07.923Z,11
2019-02-07T03:57:16.899Z,13
2019-02-07T04:07:24.395Z,10
2019-02-07T04:16:49.132Z,9
2019-02-07T04:26:54.367Z,7
2019-02-07T04:37:03.496Z,7
2019-02-07T04:47:11.702Z,7
2019-02-07T04:57:20.486Z,7
2019-02-07T05:07:28.638Z,6
2019-02-07T05:17:37.971Z,7
2019-02-07T05:27:47.924Z,7
2019-02-07T05:37:55.872Z,6
2019-02-07T05:48:03.734Z,6
2019-02-07T05:58:10.235Z,5
2019-02-07T06:08:17.015Z,6
2019-02-07T06:17:37.462Z,4
2019-02-07T06:27:45.035Z,5
2019-02-07T06:35:03.551Z,5
2019-02-07T06:45:11.347Z,5
2019-02-07T06:55:19.798Z,5
2019-02-07T07:05:31.385Z,4
2019-02-07T07:15:40.765Z,4
2019-02-07T07:25:48.372Z,5
2019-02-07T07:35:56.654Z,4
2019-02-07T07:46:07.097Z,5
2019-02-07T07:56:15.286Z,4
2019-02-07T08:06:25.682Z,4
2019-02-07T08:16:35.392Z,4
2019-02-07T08:26:41.960Z,6
2019-02-07T08:36:49.590Z,6
2019-02-07T08:46:59.689Z,6
2019-02-07T08:57:08.362Z,3
2019-02-07T09:03:24.819Z,5
2019-02-07T09:13:34.700Z,4
2019-02-07T09:18:51.022Z,5
2019-02-07T09:28:56.809Z,6
2019-02-07T09:39:03.418Z,5
2019-02-07T09:49:12.308Z,3
2019-02-07T09:59:20.065Z,5
2019-02-07T10:09:30.216Z,11
2019-02-07T10:16:49.197Z,13
2019-02-07T10:22:58.546Z,11
2019-02-07T10:33:02.192Z,12
2019-02-07T10:36:16.202Z,10
2019-02-07T10:46:23.753Z,10
2019-02-07T10:50:41.875Z,9
2019-02-07T11:00:51.631Z,5
2019-02-07T11:11:03.272Z,6
2019-02-07T11:20:26.427Z,5
2019-02-07T11:28:44.538Z,7
2019-02-07T11:38:54.118Z,6
2019-02-07T11:49:07.364Z,6
2019-02-07T11:49:48.453Z,6
2019-02-07T11:57:04.031Z,13
2019-02-07T11:58:17.009Z,10
2019-02-07T12:01:12.625Z,8
2019-02-07T12:11:19.646Z,11
2019-02-07T12:21:21.440Z,6
2019-02-07T12:31:30.511Z,13
2019-02-07T12:41:37.522Z,7
2019-02-07T12:51:47.145Z,14
2019-02-07T13:01:10.106Z,11
2019-02-07T13:11:31.581Z,12
2019-02-07T13:22:03.310Z,8
2019-02-07T13:31:19.988Z,9
2019-02-07T13:41:28.767Z,11
2019-02-07T13:51:35.739Z,10
2019-02-07T13:57:56.944Z,14
2019-02-07T14:08:03.759Z,16
2019-02-07T14:09:16.455Z,19
2019-02-07T14:14:35.922Z,19
2019-02-07T14:23:53.632Z,16
2019-02-07T14:31:10.334Z,9
2019-02-07T14:34:21.047Z,12
2019-02-07T14:44:30.409Z,6
2019-02-07T14:46:50.424Z,8
2019-02-07T14:56:57.667Z,6
2019-02-07T15:06:28.764Z,9
2019-02-07T15:16:31.063Z,13
2019-02-07T15:26:37.987Z,12
2019-02-07T15:36:52.054Z,10
2019-02-07T15:46:58.825Z,11
2019-02-07T15:51:11.337Z,24
2019-02-07T16:01:20.828Z,22
2019-02-07T16:11:28.261Z,27
2019-02-07T16:21:36.193Z,16
2019-02-07T16:32:22.677Z,14
2019-02-07T16:42:41.321Z,19
2019-02-07T16:52:48.555Z,15
2019-02-07T17:02:56.649Z,16
2019-02-07T17:07:16.406Z,17
2019-02-07T17:17:22.877Z,26
2019-02-07T17:27:32.901Z,10
2019-02-07T17:37:19.496Z,7
2019-02-07T17:47:22.924Z,19
2019-02-07T17:55:00.698Z,23
2019-02-07T18:02:18.183Z,76
2019-02-07T18:05:28.158Z,62
2019-02-07T18:15:38.536Z,22
2019-02-07T18:19:54.988Z,19
2019-02-07T18:29:56.396Z,18
2019-02-07T18:33:14.006Z,13
2019-02-07T18:43:25.504Z,15
2019-02-07T18:53:31.950Z,14
2019-02-07T19:03:39.818Z,10
2019-02-07T19:13:45.885Z,8
2019-02-07T19:23:54.404Z,10
2019-02-07T19:34:03.986Z,10
2019-02-07T19:44:09.688Z,6
2019-02-07T19:54:18.337Z,9
2019-02-07T20:04:24.930Z,6
2019-02-07T20:14:31.806Z,10
2019-02-07T20:25:23.543Z,5
2019-02-07T20:35:30.189Z,6
2019-02-07T20:45:39.270Z,5
2019-02-07T20:55:47.707Z,6
2019-02-07T21:05:54.627Z,4
2019-02-07T21:16:02.207Z,5
2019-02-07T21:26:13.640Z,5
2019-02-07T21:36:17.539Z,8
2019-02-07T21:46:25.191Z,5
2019-02-07T21:56:34.842Z,6
2019-02-07T21:58:50.730Z,7
2019-02-07T22:02:04.571Z,6
2019-02-07T22:12:10.583Z,4
2019-02-07T22:19:31.670Z,3
2019-02-07T22:26:49.427Z,3
2019-02-07T22:36:55.195Z,4
2019-02-07T22:47:02.966Z,4
2019-02-07T22:57:21.891Z,3
2019-02-07T23:07:29.298Z,3
2019-02-07T23:17:38.037Z,3
2019-02-07T23:27:47.050Z,2
2019-02-07T23:37:55.034Z,2
2019-02-07T23:48:03.201Z,2
2019-02-07T23:58:12.487Z,4
